Overview Statistics Trail Chart Weather Telemetry Raw packets
 

This is the latest recevied weather packets stored in our database for station/object KO4YAW. If no packets are shown the sender has not sent any weather packets the latest 10 day(s).

<< 31 32 33 34 35 36 37 >>
Time Temp. Humidity Pressure Rain* Wind** Luminosity Snow
1787935792 30° C 27% 1022.1 hPa 0 mm - 434 W/m² -
1787934892 28.89° C 29% 1022.2 hPa 0 mm - 536 W/m² -
1787933988 28.33° C 30% 1022.2 hPa 0 mm - 616 W/m² -
1787933088 27.78° C 32% 1022.2 hPa 0 mm - 455 W/m² -
1787932188 27.22° C 34% 1022.2 hPa 0 mm - 102 W/m² -
1787931288 26.11° C 36% 1022.2 hPa 0 mm - 129 W/m² -
1787930388 25.56° C 38% 1022.4 hPa 0 mm - 69 W/m² -
1787929488 24.44° C 40% 1022.5 hPa 0 mm - 68 W/m² -
1787928588 23.89° C 41% 1022.5 hPa 0 mm - 51 W/m² -
1787927688 22.78° C 42% 1022.7 hPa 0 mm - 52 W/m² -
1787926788 22.22° C 43% 1022.5 hPa 0 mm - 46 W/m² -
1787925888 21.67° C 46% 1022.5 hPa 0 mm - 51 W/m² -
1787924988 20.56° C 47% 1022.5 hPa 0 mm - 45 W/m² -
1787924088 20° C 48% 1022.4 hPa 0 mm - 74 W/m² -
1787923188 19.44° C 49% 1022.4 hPa 0 mm - 52 W/m² -
1787922288 18.89° C 51% 1022.4 hPa 0 mm - 23 W/m² -
1787921388 18.89° C 51% 1022.3 hPa 0 mm - 15 W/m² -
1787920488 19.44° C 50% 1021.9 hPa 0 mm - 5 W/m² -
1787919588 19.44° C 51% 1021.9 hPa 0 mm - 1 W/m² -
1787918688 19.44° C 51% 1021.8 hPa 0 mm - 0 W/m² -
1787917788 19.44° C 50% 1021.8 hPa 0 mm - 0 W/m² -
1787916888 19.44° C 50% 1021.8 hPa 0 mm - 0 W/m² -
1787915988 19.44° C 50% 1021.8 hPa 0 mm - 0 W/m² -
1787915088 19.44° C 51% 1021.8 hPa 0 mm - 0 W/m² -
1787914188 19.44° C 50% 1021.8 hPa 0 mm - 0 W/m² -

* Rain since midnight (hover to see other rain measurements)
** Current wind speed in m/s (hover to see current wind gust speed)